Time;durP1;ratioP1;P1;durP2;ratioP2;P2;SDS_P1;SDS_P2;PMS_P1;PMS_P2;Temp;Humidity;BMP_temperature;BMP_pressure;BME280_temperature;BME280_humidity;BME280_pressure;Samples;Min_cycle;Max_cycle;Signal;HPM_P1;HPM_P2
2024/01/19 00:00:15;;;;;;;9.83;5.17;;;-1.20;1.00;;;;;;5035090;28;20206;-77
2024/01/19 00:02:42;;;;;;;9.97;5.47;;;-1.10;1.00;;;;;;5036611;28;20291;-78
2024/01/19 00:05:09;;;;;;;9.47;4.80;;;-1.20;99.90;;;;;;5035216;28;20220;-78
2024/01/19 00:07:36;;;;;;;8.37;4.03;;;-1.20;99.90;;;;;;5033753;28;20196;-78
2024/01/19 00:10:05;;;;;;;8.03;4.97;;;-1.20;99.90;;;;;;5034022;28;20200;-78
2024/01/19 00:12:35;;;;;;;8.60;4.60;;;-1.10;99.90;;;;;;5033785;28;20271;-76
2024/01/19 00:15:02;;;;;;;10.67;5.13;;;-1.10;99.90;;;;;;5032938;28;20617;-77
2024/01/19 00:17:29;;;;;;;10.77;5.40;;;-1.10;1.00;;;;;;5033162;28;20610;-77
2024/01/19 00:19:56;;;;;;;8.50;5.27;;;-1.10;99.90;;;;;;5033552;28;20213;-76
2024/01/19 00:22:22;;;;;;;8.30;4.77;;;-0.90;99.90;;;;;;5034187;28;20196;-78
2024/01/19 00:24:49;;;;;;;8.00;5.23;;;-0.90;1.00;;;;;;5034235;28;20215;-78
2024/01/19 00:27:17;;;;;;;9.83;5.43;;;-0.90;1.00;;;;;;5039038;28;20195;-78
2024/01/19 00:29:44;;;;;;;7.57;5.00;;;-0.90;1.00;;;;;;5033858;28;20204;-78
2024/01/19 00:32:11;;;;;;;10.90;5.50;;;-0.90;1.00;;;;;;5046863;28;20206;-78
2024/01/19 00:34:38;;;;;;;11.90;5.17;;;-0.80;1.00;;;;;;5040600;28;20225;-79
2024/01/19 00:37:07;;;;;;;9.67;5.40;;;-0.80;1.00;;;;;;5042107;28;20203;-77
2024/01/19 00:39:33;;;;;;;10.20;5.60;;;-0.80;1.00;;;;;;5041573;28;20250;-78
2024/01/19 00:42:00;;;;;;;11.87;5.70;;;-0.80;1.00;;;;;;5035994;28;20642;-78
2024/01/19 00:44:29;;;;;;;11.43;5.83;;;-0.90;1.00;;;;;;5039451;28;20690;-76
2024/01/19 00:46:56;;;;;;;11.07;5.80;;;-0.90;1.00;;;;;;5036433;28;20208;-77
2024/01/19 00:49:22;;;;;;;12.43;5.50;;;-1.00;99.90;;;;;;5036288;28;20206;-78
2024/01/19 00:51:49;;;;;;;12.40;6.20;;;-0.90;95.60;;;;;;5038073;28;20210;-76
2024/01/19 00:54:16;;;;;;;8.63;5.20;;;-0.90;1.00;;;;;;5038846;28;20223;-77
2024/01/19 00:56:43;;;;;;;11.13;5.70;;;-1.00;99.90;;;;;;5039698;28;20195;-78
2024/01/19 00:59:09;;;;;;;11.40;6.20;;;-0.90;99.90;;;;;;5035255;28;20229;-76
2024/01/19 01:01:38;;;;;;;13.53;6.13;;;-1.00;99.90;;;;;;5038818;28;20207;-78
2024/01/19 01:04:05;;;;;;;12.00;5.80;;;-0.90;96.70;;;;;;5037216;28;20208;-78
2024/01/19 01:06:32;;;;;;;10.60;6.40;;;-0.90;9.70;;;;;;5039353;28;20299;-78
2024/01/19 01:08:59;;;;;;;14.33;6.50;;;-1.00;1.00;;;;;;5037171;28;20192;-78
2024/01/19 01:11:27;;;;;;;14.00;6.73;;;-1.00;1.00;;;;;;5035922;28;20230;-79
2024/01/19 01:13:54;;;;;;;12.60;6.20;;;-0.90;1.00;;;;;;5038470;28;20198;-77
2024/01/19 01:16:21;;;;;;;10.77;6.33;;;-1.00;1.00;;;;;;5035947;28;20658;-78
2024/01/19 01:18:49;;;;;;;14.10;6.70;;;-1.00;1.00;;;;;;5036623;28;20238;-78
2024/01/19 01:21:16;;;;;;;12.10;6.33;;;-0.90;1.00;;;;;;5032921;28;20204;-77
2024/01/19 01:23:43;;;;;;;15.87;6.17;;;-0.80;1.00;;;;;;5036904;28;20672;-77
2024/01/19 01:26:10;;;;;;;10.67;5.67;;;-0.80;1.00;;;;;;5036437;28;20219;-78
2024/01/19 01:28:36;;;;;;;11.77;5.83;;;-0.80;1.00;;;;;;5036195;28;20192;-78
2024/01/19 01:31:04;;;;;;;11.53;6.20;;;-0.80;1.00;;;;;;5036831;28;20200;-78
2024/01/19 01:33:30;;;;;;;13.57;6.80;;;-0.80;1.00;;;;;;5031250;28;20206;-75
2024/01/19 01:35:59;;;;;;;14.17;7.00;;;-0.90;1.00;;;;;;5036805;28;20230;-77
2024/01/19 01:38:25;;;;;;;14.67;6.30;;;-0.90;1.00;;;;;;5040843;28;20708;-78
2024/01/19 01:40:52;;;;;;;11.83;6.57;;;-0.90;1.00;;;;;;5040147;28;20203;-76
2024/01/19 01:43:24;;;;;;;14.90;7.00;;;-1.00;1.00;;;;;;5034012;28;21121;-77
2024/01/19 01:45:51;;;;;;;21.87;7.43;;;-0.50;1.00;;;;;;5036630;28;20234;-78
2024/01/19 01:48:19;;;;;;;12.57;6.67;;;-1.00;1.00;;;;;;5037135;28;20303;-77
2024/01/19 01:50:46;;;;;;;20.20;8.07;;;-0.90;1.00;;;;;;5035711;28;20317;-77
2024/01/19 01:53:18;;;;;;;15.23;7.47;;;-1.00;1.00;;;;;;5038877;28;20211;-78
2024/01/19 01:55:45;;;;;;;12.80;7.20;;;-1.10;1.00;;;;;;5038811;28;20219;-78
2024/01/19 01:58:13;;;;;;;15.13;7.43;;;-1.10;1.00;;;;;;5036327;28;20607;-77
2024/01/19 02:00:40;;;;;;;16.07;7.60;;;-1.10;1.00;;;;;;5036751;28;20203;-77
2024/01/19 02:03:07;;;;;;;14.27;7.03;;;-1.10;1.00;;;;;;5037411;28;20200;-78
2024/01/19 02:05:34;;;;;;;15.63;7.27;;;-1.00;1.00;;;;;;5036021;28;20223;-77
2024/01/19 02:08:01;;;;;;;11.60;7.30;;;-1.10;1.00;;;;;;5037560;28;20206;-78
2024/01/19 02:10:30;;;;;;;15.53;7.93;;;-1.10;1.00;;;;;;5035259;28;20200;-77
2024/01/19 02:12:57;;;;;;;16.20;6.80;;;-1.10;1.00;;;;;;5036517;28;20214;-77
2024/01/19 02:15:25;;;;;;;16.97;8.33;;;-1.00;1.00;;;;;;5039290;28;20837;-78
2024/01/19 02:17:53;;;;;;;17.00;8.57;;;-1.00;1.00;;;;;;5038116;28;20199;-76
2024/01/19 02:20:20;;;;;;;17.03;8.17;;;-1.00;1.00;;;;;;5037714;28;20196;-78
2024/01/19 02:22:48;;;;;;;16.60;8.53;;;-0.90;1.00;;;;;;5038551;28;20200;-77
2024/01/19 02:25:16;;;;;;;16.83;8.10;;;-0.80;1.00;;;;;;5037787;28;20242;-77
2024/01/19 02:27:43;;;;;;;17.63;8.67;;;-0.70;1.00;;;;;;5034917;28;20204;-76
2024/01/19 02:30:11;;;;;;;15.20;7.87;;;-0.70;1.00;;;;;;5037859;28;20199;-77
2024/01/19 02:32:38;;;;;;;15.40;7.57;;;-0.60;1.00;;;;;;5036432;28;20206;-78
2024/01/19 02:35:05;;;;;;;16.37;7.57;;;-0.60;1.00;;;;;;5035968;28;20239;-78
2024/01/19 02:37:32;;;;;;;18.60;9.80;;;-0.60;1.00;;;;;;5035647;28;20235;-78
2024/01/19 02:40:00;;;;;;;18.33;8.97;;;-0.60;1.00;;;;;;5034962;28;20223;-78
2024/01/19 02:42:29;;;;;;;17.97;9.93;;;-0.60;1.00;;;;;;5034912;28;20195;-78
2024/01/19 02:44:56;;;;;;;19.87;9.37;;;-0.60;1.00;;;;;;5038241;28;20229;-75
2024/01/19 02:47:22;;;;;;;19.03;9.17;;;-0.70;1.00;;;;;;5046666;28;20693;-81
2024/01/19 02:49:49;;;;;;;19.17;8.73;;;-0.80;1.00;;;;;;5043021;28;20665;-78
2024/01/19 02:52:16;;;;;;;16.23;8.63;;;-0.80;1.00;;;;;;5038691;28;21696;-77
2024/01/19 02:54:43;;;;;;;18.00;9.53;;;-0.80;1.00;;;;;;5039594;28;20221;-76
2024/01/19 02:57:09;;;;;;;17.73;9.93;;;-0.70;1.00;;;;;;5036920;28;20218;-75
2024/01/19 02:59:37;;;;;;;18.33;9.83;;;-0.70;1.00;;;;;;5036114;28;20227;-76
2024/01/19 03:02:05;;;;;;;20.50;9.67;;;-0.60;99.90;;;;;;5036785;28;20212;-77
2024/01/19 03:04:31;;;;;;;17.57;8.33;;;-0.70;99.90;;;;;;5036428;28;20566;-77
2024/01/19 03:06:58;;;;;;;17.90;8.63;;;-0.70;99.90;;;;;;5036221;28;20199;-77
2024/01/19 03:09:25;;;;;;;18.13;8.73;;;-0.90;99.90;;;;;;5034313;28;20196;-76
2024/01/19 03:11:51;;;;;;;16.93;8.77;;;-0.80;99.90;;;;;;5035318;28;20218;-78
2024/01/19 03:14:18;;;;;;;15.73;8.17;;;-0.80;99.90;;;;;;5037454;28;20318;-78
2024/01/19 03:16:46;;;;;;;16.80;9.07;;;-0.90;99.90;;;;;;5038658;28;20207;-76
2024/01/19 03:19:15;;;;;;;18.47;8.63;;;-0.90;99.90;;;;;;5034303;28;20232;-77
2024/01/19 03:21:41;;;;;;;18.73;8.47;;;-0.90;99.90;;;;;;5034768;28;20200;-78
2024/01/19 03:24:08;;;;;;;18.23;8.00;;;-0.80;99.90;;;;;;5041591;28;20225;-78
2024/01/19 03:26:35;;;;;;;15.87;8.57;;;-0.80;99.90;;;;;;5039372;28;20219;-78
2024/01/19 03:29:03;;;;;;;21.10;8.40;;;-0.80;99.90;;;;;;5038078;28;20221;-77
2024/01/19 03:31:29;;;;;;;17.67;8.37;;;-0.70;99.90;;;;;;5038156;28;20282;-77
2024/01/19 03:33:58;;;;;;;17.83;7.53;;;-0.70;99.90;;;;;;5035761;28;20564;-78
2024/01/19 03:36:24;;;;;;;18.43;9.37;;;-0.70;99.90;;;;;;5036079;28;20210;-78
2024/01/19 03:38:51;;;;;;;14.63;8.33;;;-0.70;99.90;;;;;;5033832;28;20584;-75
2024/01/19 03:41:18;;;;;;;18.00;9.00;;;-0.60;99.90;;;;;;5034647;28;20579;-77
2024/01/19 03:43:45;;;;;;;19.73;9.87;;;-0.60;99.90;;;;;;5035144;28;20207;-78
2024/01/19 03:46:12;;;;;;;19.13;9.80;;;-0.60;99.90;;;;;;5033618;28;20235;-77
2024/01/19 03:48:39;;;;;;;17.07;9.17;;;-0.70;99.90;;;;;;5033960;28;20199;-76
2024/01/19 03:51:07;;;;;;;14.40;8.40;;;-0.60;99.90;;;;;;5040593;28;20212;-78
2024/01/19 03:53:34;;;;;;;16.30;8.70;;;-0.70;1.00;;;;;;5034400;28;20211;-78
2024/01/19 03:56:00;;;;;;;18.37;10.17;;;-0.70;1.00;;;;;;5039667;28;20233;-77
2024/01/19 03:58:27;;;;;;;18.53;9.60;;;-0.70;1.00;;;;;;5037449;28;20213;-78
2024/01/19 04:00:54;;;;;;;19.77;9.73;;;-0.70;1.00;;;;;;5038484;28;20210;-78
2024/01/19 04:03:21;;;;;;;20.20;9.90;;;-0.70;1.00;;;;;;5035065;28;20207;-75
2024/01/19 04:05:48;;;;;;;17.47;9.03;;;-0.60;1.00;;;;;;5033362;28;20216;-78
2024/01/19 04:08:16;;;;;;;19.87;10.93;;;-0.60;1.00;;;;;;5035515;28;20219;-78
2024/01/19 04:10:43;;;;;;;20.97;11.13;;;-0.60;1.00;;;;;;5034543;28;20204;-78
2024/01/19 04:13:09;;;;;;;19.47;10.67;;;-0.60;1.00;;;;;;5034116;28;20209;-79
2024/01/19 04:15:36;;;;;;;21.60;10.90;;;-0.50;1.00;;;;;;5033455;28;20237;-78
2024/01/19 04:18:04;;;;;;;22.47;12.33;;;-0.50;1.00;;;;;;5034544;28;20223;-78
2024/01/19 04:20:30;;;;;;;19.87;9.97;;;-0.50;1.00;;;;;;5032919;28;20227;-75
2024/01/19 04:22:58;;;;;;;21.83;10.70;;;-0.60;99.90;;;;;;5037259;28;20206;-77
2024/01/19 04:25:26;;;;;;;21.53;10.77;;;-0.50;1.00;;;;;;5037405;28;20636;-77
2024/01/19 04:27:52;;;;;;;22.27;11.93;;;-0.60;1.00;;;;;;5040532;28;20210;-78
2024/01/19 04:30:19;;;;;;;23.50;12.17;;;-0.60;99.90;;;;;;5036807;28;20200;-77
2024/01/19 04:32:46;;;;;;;21.07;12.00;;;-0.50;99.90;;;;;;5035864;28;20204;-78
2024/01/19 04:35:13;;;;;;;23.00;12.00;;;-0.60;99.90;;;;;;5040401;28;20227;-78
2024/01/19 04:37:40;;;;;;;20.00;10.50;;;-0.60;99.90;;;;;;5037395;28;20618;-77
2024/01/19 04:40:07;;;;;;;21.57;11.40;;;-0.60;1.00;;;;;;5036594;28;20227;-76
2024/01/19 04:42:35;;;;;;;20.60;10.83;;;-0.60;1.00;;;;;;5041136;28;20211;-77
2024/01/19 04:45:02;;;;;;;21.27;10.23;;;-0.60;1.00;;;;;;5037746;28;20711;-77
2024/01/19 04:47:30;;;;;;;19.13;11.00;;;-0.50;1.00;;;;;;5038334;28;20199;-78
2024/01/19 04:49:57;;;;;;;21.43;10.90;;;-0.60;1.00;;;;;;5043027;28;20639;-78
2024/01/19 04:52:24;;;;;;;19.93;10.70;;;-0.60;1.00;;;;;;5036122;28;20204;-77
2024/01/19 04:54:51;;;;;;;21.47;10.20;;;-0.60;1.00;;;;;;5043991;28;20224;-78
2024/01/19 04:57:18;;;;;;;18.57;8.90;;;-0.70;1.00;;;;;;5043508;28;20208;-79
2024/01/19 04:59:46;;;;;;;17.57;9.83;;;-0.60;99.90;;;;;;5036309;28;20690;-78
2024/01/19 05:02:13;;;;;;;15.10;9.17;;;-0.60;99.90;;;;;;5042513;28;20207;-79
2024/01/19 05:04:41;;;;;;;19.63;9.43;;;-0.50;1.00;;;;;;5038888;28;20293;-78
2024/01/19 05:07:08;;;;;;;17.20;9.33;;;-0.50;1.00;;;;;;5043297;28;20214;-79
2024/01/19 05:09:35;;;;;;;17.20;9.23;;;-0.50;1.00;;;;;;5036280;28;20218;-78
2024/01/19 05:12:02;;;;;;;19.17;10.03;;;-0.60;1.00;;;;;;5035402;28;20208;-78
2024/01/19 05:14:29;;;;;;;19.97;9.97;;;-0.60;1.00;;;;;;5036083;28;20724;-78
2024/01/19 05:16:57;;;;;;;18.07;9.50;;;-0.60;1.00;;;;;;5039565;28;20219;-77
2024/01/19 05:19:23;;;;;;;20.40;10.60;;;-0.60;1.00;;;;;;5034296;28;20653;-77
2024/01/19 05:21:50;;;;;;;20.87;10.53;;;-0.50;1.00;;;;;;5038356;28;20196;-77
2024/01/19 05:24:18;;;;;;;21.70;11.20;;;-0.60;99.90;;;;;;5039341;28;20784;-77
2024/01/19 05:26:44;;;;;;;21.90;10.57;;;-0.50;99.90;;;;;;5035672;28;20204;-78
2024/01/19 05:29:11;;;;;;;18.47;9.30;;;-0.50;5.30;;;;;;5036777;28;20202;-78
2024/01/19 05:31:38;;;;;;;20.63;10.10;;;-0.50;1.00;;;;;;5035994;28;20200;-79
2024/01/19 05:34:06;;;;;;;23.53;11.53;;;-0.40;1.00;;;;;;5039520;28;20314;-78
2024/01/19 05:36:33;;;;;;;18.53;10.37;;;-0.50;1.00;;;;;;5037863;28;20210;-78
2024/01/19 05:38:59;;;;;;;21.43;10.93;;;-0.50;1.00;;;;;;5039196;28;20204;-77
2024/01/19 05:41:26;;;;;;;19.43;10.33;;;-0.50;1.00;;;;;;5035913;28;20203;-78
2024/01/19 05:43:53;;;;;;;20.30;10.63;;;-0.60;1.00;;;;;;5038752;28;20200;-78
2024/01/19 05:46:20;;;;;;;21.77;11.17;;;-0.60;1.00;;;;;;5036707;28;20227;-78
2024/01/19 05:48:46;;;;;;;17.80;11.07;;;-0.60;1.00;;;;;;5034965;28;20206;-79
2024/01/19 05:51:16;;;;;;;18.27;10.17;;;-0.60;1.00;;;;;;5036166;28;20203;-77
2024/01/19 05:53:42;;;;;;;18.00;10.17;;;-0.60;1.00;;;;;;5041974;28;20196;-78
2024/01/19 05:56:09;;;;;;;16.20;9.20;;;-0.60;1.00;;;;;;5048848;28;20697;-78
2024/01/19 05:58:36;;;;;;;22.23;11.60;;;-0.60;1.00;;;;;;5036205;28;20203;-79
2024/01/19 06:01:03;;;;;;;22.03;11.10;;;-0.50;1.00;;;;;;5043997;28;20603;-79
2024/01/19 06:03:30;;;;;;;18.80;11.20;;;-0.50;1.00;;;;;;5044594;28;20203;-78
2024/01/19 06:05:57;;;;;;;24.03;14.67;;;-0.40;1.00;;;;;;5034170;28;20231;-78
2024/01/19 06:08:25;;;;;;;18.40;10.80;;;-0.40;1.00;;;;;;5039632;28;20214;-76
2024/01/19 06:10:52;;;;;;;18.83;10.33;;;-0.40;1.00;;;;;;5033203;28;20208;-77
2024/01/19 06:13:19;;;;;;;21.57;11.73;;;-0.40;1.00;;;;;;5036600;28;20219;-78
2024/01/19 06:15:45;;;;;;;17.40;10.20;;;-0.50;1.00;;;;;;5032719;28;20265;-78
2024/01/19 06:18:12;;;;;;;16.80;10.83;;;-0.50;1.00;;;;;;5034865;28;20203;-77
2024/01/19 06:20:41;;;;;;;18.37;11.40;;;-0.50;1.00;;;;;;5036800;28;20243;-78
2024/01/19 06:23:08;;;;;;;22.00;12.70;;;-0.50;1.00;;;;;;5038505;28;20200;-79
2024/01/19 06:25:36;;;;;;;20.77;11.00;;;-0.60;1.00;;;;;;5032870;28;20245;-77
2024/01/19 06:28:04;;;;;;;25.40;11.57;;;-0.70;41.10;;;;;;5034191;28;20199;-78
2024/01/19 06:30:30;;;;;;;19.70;11.50;;;-0.70;6.90;;;;;;5034022;28;20222;-79
2024/01/19 06:32:57;;;;;;;22.17;12.50;;;-0.60;1.00;;;;;;5030610;28;20203;-78
2024/01/19 06:35:24;;;;;;;21.27;12.10;;;-0.70;99.90;;;;;;5033081;28;21070;-78
2024/01/19 06:37:51;;;;;;;21.37;12.53;;;-0.70;1.00;;;;;;5033324;28;20334;-78
2024/01/19 06:40:18;;;;;;;21.77;13.13;;;-0.70;99.90;;;;;;5032145;28;20219;-77
2024/01/19 06:42:46;;;;;;;23.90;13.67;;;-0.70;99.90;;;;;;5031864;28;20217;-78
2024/01/19 06:45:16;;;;;;;19.83;11.73;;;-0.80;1.00;;;;;;5032401;28;20238;-77
2024/01/19 06:47:42;;;;;;;21.57;12.93;;;-0.70;1.00;;;;;;5031818;28;20674;-78
2024/01/19 06:50:10;;;;;;;20.67;11.90;;;-0.70;1.00;;;;;;5033445;28;20206;-79
2024/01/19 06:52:37;;;;;;;20.00;12.40;;;-0.70;1.00;;;;;;5034596;28;20208;-79
2024/01/19 06:55:04;;;;;;;23.33;13.63;;;-0.70;1.00;;;;;;5039436;28;20686;-78
2024/01/19 06:57:31;;;;;;;22.40;13.47;;;-0.70;1.00;;;;;;5032949;28;20206;-78
2024/01/19 06:59:59;;;;;;;21.57;12.93;;;-0.70;1.00;;;;;;5041597;28;20741;-77
2024/01/19 07:02:26;;;;;;;22.43;13.53;;;-0.70;1.00;;;;;;5035722;28;20210;-78
2024/01/19 07:04:53;;;;;;;22.60;13.20;;;-0.80;1.00;;;;;;5033790;28;20225;-77
2024/01/19 07:07:20;;;;;;;22.67;13.43;;;-0.80;99.90;;;;;;5040046;28;20378;-77
2024/01/19 07:09:47;;;;;;;22.67;14.80;;;-0.40;99.90;;;;;;5030863;28;20207;-77
2024/01/19 07:12:16;;;;;;;23.93;14.33;;;-0.80;99.90;;;;;;5030770;28;20286;-78
2024/01/19 07:14:43;;;;;;;23.37;14.73;;;-0.70;99.90;;;;;;5032910;28;20262;-76
2024/01/19 07:17:11;;;;;;;23.60;14.83;;;-0.80;99.90;;;;;;5041048;28;20658;-78
2024/01/19 07:19:38;;;;;;;23.10;14.07;;;-0.80;99.90;;;;;;5040870;28;20591;-77
2024/01/19 07:22:05;;;;;;;22.73;13.67;;;-0.90;1.00;;;;;;5039670;28;20569;-78
2024/01/19 07:24:35;;;;;;;22.43;13.33;;;-0.90;1.00;;;;;;5040111;28;20396;-77
2024/01/19 07:27:02;;;;;;;23.23;15.03;;;-0.90;1.00;;;;;;5035791;28;20204;-78
2024/01/19 07:29:28;;;;;;;23.67;13.63;;;-0.80;1.00;;;;;;5035297;28;20209;-77
2024/01/19 07:31:55;;;;;;;23.50;15.63;;;-0.90;1.00;;;;;;5036522;28;20578;-78
2024/01/19 07:34:23;;;;;;;26.30;16.03;;;-0.80;1.00;;;;;;5037305;28;20605;-78
2024/01/19 07:36:50;;;;;;;22.17;14.57;;;-0.80;1.00;;;;;;5035002;28;20204;-79
2024/01/19 07:39:18;;;;;;;25.90;15.00;;;-0.70;1.00;;;;;;5033530;28;20207;-76
2024/01/19 07:41:45;;;;;;;22.57;15.63;;;-0.70;1.00;;;;;;5031868;28;20230;-78
2024/01/19 07:44:12;;;;;;;21.77;14.13;;;-0.60;1.00;;;;;;5033216;28;20207;-78
2024/01/19 07:46:40;;;;;;;23.27;14.57;;;-0.60;1.00;;;;;;5032406;28;20675;-76
2024/01/19 07:49:06;;;;;;;23.10;13.10;;;-0.50;1.00;;;;;;5032394;28;20203;-77
2024/01/19 07:51:35;;;;;;;23.10;13.87;;;-0.50;1.00;;;;;;5032271;28;20655;-78
2024/01/19 07:54:01;;;;;;;23.43;14.80;;;-0.30;1.00;;;;;;5039999;28;20203;-78
2024/01/19 07:56:28;;;;;;;22.23;12.80;;;-0.40;1.00;;;;;;5031619;28;20214;-76
2024/01/19 07:58:55;;;;;;;25.63;14.23;;;-0.40;99.90;;;;;;5032474;28;20226;-77
2024/01/19 08:01:22;;;;;;;21.80;12.47;;;-0.40;99.90;;;;;;5044429;28;20226;-78
2024/01/19 08:03:49;;;;;;;25.27;14.23;;;-0.30;1.00;;;;;;5045312;28;20724;-78
2024/01/19 08:06:16;;;;;;;21.00;14.57;;;-0.30;99.90;;;;;;5047098;28;20222;-78
2024/01/19 08:08:44;;;;;;;18.03;11.30;;;-0.30;99.90;;;;;;5043291;28;20202;-78
2024/01/19 08:11:10;;;;;;;24.53;14.17;;;-0.20;99.90;;;;;;5039643;28;20203;-78
2024/01/19 08:13:37;;;;;;;23.13;14.63;;;-0.10;1.00;;;;;;5043457;28;20203;-77
2024/01/19 08:16:07;;;;;;;25.37;14.67;;;0.00;1.00;;;;;;5042308;28;20241;-77
2024/01/19 08:18:34;;;;;;;23.10;13.80;;;0.00;1.00;;;;;;5041832;28;20209;-77
2024/01/19 08:21:02;;;;;;;25.33;14.27;;;0.30;99.90;;;;;;5037562;28;20215;-77
2024/01/19 08:23:29;;;;;;;22.77;14.70;;;0.10;99.90;;;;;;5044149;28;20199;-78
2024/01/19 08:25:57;;;;;;;21.00;13.13;;;0.00;99.90;;;;;;5037325;28;20223;-78
2024/01/19 08:28:24;;;;;;;17.33;11.17;;;0.10;99.90;;;;;;5039855;28;20195;-78
2024/01/19 08:30:51;;;;;;;20.37;11.80;;;0.30;99.90;;;;;;5039118;28;20192;-78
2024/01/19 08:33:18;;;;;;;22.43;12.47;;;0.30;1.00;;;;;;5039718;28;20657;-78
2024/01/19 08:35:45;;;;;;;23.10;12.83;;;0.50;1.00;;;;;;5039624;28;20219;-78
2024/01/19 08:38:13;;;;;;;23.40;12.67;;;0.50;1.00;;;;;;5038841;28;20208;-77
2024/01/19 08:40:40;;;;;;;22.23;13.03;;;0.80;1.00;;;;;;5037195;28;20227;-77
2024/01/19 08:43:09;;;;;;;19.93;12.43;;;1.30;99.90;;;;;;5037332;28;20204;-79
2024/01/19 08:45:36;;;;;;;18.60;11.50;;;1.30;1.00;;;;;;5036971;28;20224;-78
2024/01/19 08:48:03;;;;;;;19.80;11.97;;;1.10;25.40;;;;;;5032965;28;20230;-78
2024/01/19 08:50:30;;;;;;;17.70;10.97;;;0.90;99.90;;;;;;5031844;28;20199;-78
2024/01/19 08:52:57;;;;;;;17.57;9.97;;;1.00;99.90;;;;;;5032949;28;20208;-79
2024/01/19 08:55:25;;;;;;;16.77;9.80;;;1.10;1.00;;;;;;5031101;28;20239;-78
2024/01/19 08:57:52;;;;;;;19.47;11.13;;;0.70;99.90;;;;;;5032465;28;20274;-76
2024/01/19 09:00:20;;;;;;;17.70;11.17;;;0.70;99.90;;;;;;5049284;28;20233;-79
2024/01/19 09:02:48;;;;;;;22.80;11.47;;;1.10;98.90;;;;;;5046650;28;20214;-79
2024/01/19 09:05:15;;;;;;;18.07;11.03;;;1.00;1.00;;;;;;5041095;28;20308;-79
2024/01/19 09:07:42;;;;;;;20.03;11.60;;;1.20;1.00;;;;;;5045410;28;20582;-77
2024/01/19 09:10:09;;;;;;;22.90;13.07;;;1.10;1.00;;;;;;5042254;28;20210;-78
2024/01/19 09:12:36;;;;;;;26.83;12.60;;;1.20;1.00;;;;;;5049376;28;20206;-77
2024/01/19 09:15:03;;;;;;;22.67;12.07;;;1.60;1.00;;;;;;5046653;28;20239;-77
2024/01/19 09:17:32;;;;;;;23.20;11.47;;;1.60;1.00;;;;;;5048364;28;20207;-78
2024/01/19 09:19:58;;;;;;;22.20;11.93;;;1.10;1.00;;;;;;5043638;28;20228;-77
2024/01/19 09:22:27;;;;;;;19.03;11.33;;;1.20;1.00;;;;;;5040242;28;20269;-77
2024/01/19 09:24:53;;;;;;;25.00;12.27;;;1.20;1.00;;;;;;5044876;28;20227;-79
2024/01/19 09:27:20;;;;;;;19.93;11.30;;;1.20;1.00;;;;;;5045041;28;20623;-79
2024/01/19 09:29:48;;;;;;;19.70;11.23;;;1.20;1.00;;;;;;5043202;28;20195;-78
2024/01/19 09:32:16;;;;;;;19.80;12.30;;;1.60;1.00;;;;;;5040620;28;20200;-81
2024/01/19 09:34:44;;;;;;;24.03;13.47;;;1.90;99.90;;;;;;5039123;28;20226;-78
2024/01/19 09:37:11;;;;;;;23.27;12.27;;;1.90;99.90;;;;;;5038669;28;20211;-78
2024/01/19 09:39:38;;;;;;;25.23;13.67;;;2.30;99.90;;;;;;5038205;28;20211;-79
2024/01/19 09:42:09;;;;;;;23.40;13.40;;;2.50;99.90;;;;;;5036227;28;20231;-79
2024/01/19 09:44:37;;;;;;;24.97;13.53;;;2.20;99.90;;;;;;5038549;28;21065;-79
2024/01/19 09:47:30;;;;;;;24.50;14.03;;;2.20;99.90;;;;;;5036248;28;20267;-79
2024/01/19 09:50:04;;;;;;;24.13;13.20;;;1.80;99.90;;;;;;5033024;28;20200;-78
2024/01/19 09:52:42;;;;;;;24.13;13.53;;;1.70;1.00;;;;;;5034936;28;20203;-79
2024/01/19 09:55:10;;;;;;;24.50;13.27;;;1.70;1.00;;;;;;5029113;28;20227;-79
2024/01/19 09:57:44;;;;;;;25.43;14.20;;;1.70;1.00;;;;;;5033520;28;20211;-77
2024/01/19 10:00:13;;;;;;;23.97;13.90;;;1.70;1.00;;;;;;5035660;28;20214;-79
2024/01/19 10:02:43;;;;;;;27.20;14.43;;;1.80;1.00;;;;;;5041901;28;20610;-79
2024/01/19 10:05:13;;;;;;;26.40;14.40;;;1.80;99.90;;;;;;5039563;28;20274;-80
2024/01/19 10:07:42;;;;;;;25.57;13.73;;;2.00;1.00;;;;;;5040443;28;20685;-78
2024/01/19 10:10:09;;;;;;;24.33;13.13;;;2.00;99.90;;;;;;5042177;28;20291;-78
2024/01/19 10:12:37;;;;;;;24.03;13.57;;;2.00;99.90;;;;;;5047626;28;20198;-79
2024/01/19 10:15:06;;;;;;;23.00;12.90;;;2.00;99.90;;;;;;5045110;28;20231;-79
2024/01/19 10:17:34;;;;;;;25.57;13.03;;;2.10;99.90;;;;;;5042791;28;20264;-78
2024/01/19 10:20:02;;;;;;;22.67;12.00;;;2.10;99.90;;;;;;5038871;28;20212;-79
2024/01/19 10:22:31;;;;;;;22.47;12.40;;;2.10;99.90;;;;;;5045125;28;20254;-79
2024/01/19 10:25:00;;;;;;;24.97;13.43;;;2.10;99.90;;;;;;5040670;28;20250;-77
2024/01/19 10:27:41;;;;;;;25.23;12.70;;;2.10;99.90;;;;;;5041004;28;20207;-80
2024/01/19 10:30:09;;;;;;;22.10;12.13;;;2.20;99.90;;;;;;5041336;28;20298;-78
2024/01/19 10:32:37;;;;;;;25.17;13.17;;;2.20;99.90;;;;;;5035486;28;20204;-79
2024/01/19 10:35:05;;;;;;;23.17;12.63;;;2.30;99.90;;;;;;5040993;28;20234;-78
2024/01/19 10:37:33;;;;;;;23.27;12.43;;;2.30;99.00;;;;;;5044907;28;20272;-78
2024/01/19 10:40:14;;;;;;;25.23;12.40;;;2.20;73.30;;;;;;5041649;28;20211;-79
2024/01/19 10:42:42;;;;;;;26.20;12.10;;;2.20;99.90;;;;;;5041485;28;20286;-78
2024/01/19 10:45:15;;;;;;;23.73;12.07;;;2.20;60.50;;;;;;5040163;28;20307;-78
2024/01/19 10:47:46;;;;;;;23.50;12.10;;;2.30;97.00;;;;;;5039569;28;20226;-79
2024/01/19 10:50:14;;;;;;;23.27;11.33;;;2.10;81.70;;;;;;5039469;28;20568;-78
2024/01/19 10:52:44;;;;;;;24.10;12.00;;;2.20;99.90;;;;;;5039979;28;20196;-77
2024/01/19 10:55:18;;;;;;;23.30;11.97;;;2.40;88.50;;;;;;5041750;28;20224;-79
2024/01/19 10:57:44;;;;;;;24.17;13.00;;;2.30;50.80;;;;;;5037998;28;20203;-80
2024/01/19 11:00:22;;;;;;;26.33;11.43;;;2.30;90.40;;;;;;5039151;28;20207;-82
2024/01/19 11:02:51;;;;;;;26.63;11.63;;;2.40;16.40;;;;;;5039295;28;20223;-81
2024/01/19 11:05:19;;;;;;;22.70;11.43;;;2.30;32.60;;;;;;5039077;28;20227;-82
2024/01/19 11:07:48;;;;;;;26.60;13.10;;;2.20;99.90;;;;;;5036892;28;20200;-79
2024/01/19 11:10:15;;;;;;;23.70;11.57;;;2.20;99.90;;;;;;5036351;28;20203;-81
2024/01/19 11:12:47;;;;;;;21.53;10.67;;;2.20;99.90;;;;;;5049184;28;20566;-81
2024/01/19 11:15:25;;;;;;;22.30;11.03;;;2.10;99.90;;;;;;5040282;28;20223;-81
2024/01/19 11:17:55;;;;;;;22.27;11.03;;;2.10;99.90;;;;;;5047375;28;20235;-80
2024/01/19 11:20:23;;;;;;;23.20;11.60;;;2.10;99.90;;;;;;5050071;28;20205;-81
2024/01/19 11:22:52;;;;;;;20.57;9.00;;;2.10;99.90;;;;;;5046219;28;20222;-82
2024/01/19 11:25:29;;;;;;;29.33;11.97;;;2.10;99.90;;;;;;5049175;28;20224;-84
2024/01/19 11:28:06;;;;;;;20.53;9.70;;;2.10;99.90;;;;;;5045512;28;20274;-81
2024/01/19 11:30:40;;;;;;;24.20;10.57;;;2.20;40.50;;;;;;5042430;28;20289;-82
2024/01/19 11:33:17;;;;;;;24.57;10.90;;;2.30;31.00;;;;;;5042125;28;20198;-80
2024/01/19 11:35:48;;;;;;;20.87;10.53;;;2.40;1.00;;;;;;5039937;28;20276;-81
2024/01/19 11:38:48;;;;;;;25.00;10.83;;;2.40;1.00;;;;;;5038435;28;20254;-83
2024/01/19 11:41:48;;;;;;;21.07;9.27;;;2.40;1.00;;;;;;5037038;28;20227;-81
2024/01/19 11:44:40;;;;;;;20.83;8.60;;;2.40;1.00;;;;;;5036123;28;20233;-80
2024/01/19 11:47:07;;;;;;;19.87;9.10;;;2.30;1.00;;;;;;5038627;28;20207;-83
2024/01/19 11:49:47;;;;;;;20.20;9.10;;;2.30;1.00;;;;;;5037441;28;20585;-81
2024/01/19 11:52:43;;;;;;;23.27;10.53;;;2.30;1.00;;;;;;5034564;28;20203;-82
2024/01/19 11:55:40;;;;;;;20.70;10.20;;;2.30;57.00;;;;;;5042196;28;20273;-81
2024/01/19 11:58:31;;;;;;;20.37;9.73;;;2.30;8.20;;;;;;5038630;28;20203;-80
2024/01/19 12:00:59;;;;;;;24.10;10.43;;;2.40;1.00;;;;;;5033810;28;20283;-82
2024/01/19 12:03:27;;;;;;;24.07;9.57;;;2.40;1.00;;;;;;5039423;28;20231;-81
2024/01/19 12:05:57;;;;;;;19.63;8.93;;;3.30;1.00;;;;;;5035672;28;20227;-81
2024/01/19 12:08:24;;;;;;;20.23;9.23;;;4.10;1.00;;;;;;5037701;28;20209;-81
2024/01/19 12:11:06;;;;;;;21.60;9.10;;;4.40;1.00;;;;;;5034726;28;20209;-84
2024/01/19 12:13:34;;;;;;;22.13;8.93;;;4.10;1.00;;;;;;5035957;28;20212;-83
2024/01/19 12:16:02;;;;;;;19.87;8.20;;;3.80;1.00;;;;;;5045504;28;20342;-82
2024/01/19 12:18:30;;;;;;;17.03;9.00;;;3.20;1.00;;;;;;5042448;28;20213;-80
2024/01/19 12:20:57;;;;;;;18.63;8.83;;;3.10;1.00;;;;;;5046410;28;20200;-80
2024/01/19 12:23:25;;;;;;;19.73;8.17;;;3.10;1.00;;;;;;5051893;28;20307;-79
2024/01/19 12:25:57;;;;;;;22.20;9.63;;;3.00;1.00;;;;;;5043228;28;20227;-79
2024/01/19 12:28:26;;;;;;;22.23;10.07;;;3.00;1.00;;;;;;5042490;28;20311;-79
2024/01/19 12:30:52;;;;;;;22.33;10.10;;;3.00;1.00;;;;;;5045220;28;20218;-79
2024/01/19 12:33:21;;;;;;;18.30;8.97;;;3.00;1.00;;;;;;5044625;28;20210;-80
2024/01/19 12:35:48;;;;;;;22.60;10.07;;;3.00;1.00;;;;;;5042409;28;20525;-82
2024/01/19 12:38:16;;;;;;;20.20;9.33;;;3.10;1.00;;;;;;5038308;28;20267;-81
2024/01/19 12:40:44;;;;;;;20.50;8.63;;;3.30;1.00;;;;;;5037744;28;20200;-82
2024/01/19 12:43:12;;;;;;;21.80;9.30;;;3.20;1.00;;;;;;5037536;28;20231;-80
2024/01/19 12:45:40;;;;;;;24.33;10.97;;;3.10;1.00;;;;;;5037129;28;20223;-81